Pajares, Asturias

latitud = 42° 58' 37''N | longitud = 005° 46' 41''W
1460 metros sobre el nivel del mar | datos mensuales

Fecha, hora, temperatura, viento dirección y velocidad, humedad y presión.

  • 23-04-2018 10:00:00 | 12.00°C | Calma |0.00 km/h | 59.00% | 0.00 hPa
  • 23-04-2018 09:00:00 | 8.80°C | Sudoeste |6.00 km/h | 68.00% | 0.00 hPa
  • 23-04-2018 08:00:00 | 8.90°C | Sur |14.00 km/h | 74.00% | 0.00 hPa
  • 23-04-2018 07:00:00 | 8.80°C | Sur |13.00 km/h | 74.00% | 0.00 hPa
  • 23-04-2018 06:00:00 | 8.60°C | Sur |12.00 km/h | 74.00% | 0.00 hPa
  • 23-04-2018 05:00:00 | 8.20°C | Sudoeste |9.00 km/h | 76.00% | 0.00 hPa
  • 23-04-2018 04:00:00 | 7.30°C | Sudoeste |6.00 km/h | 76.00% | 0.00 hPa
  • 23-04-2018 03:00:00 | 8.90°C | Sur |15.00 km/h | 76.00% | 0.00 hPa
  • 23-04-2018 02:00:00 | 8.80°C | Sur |7.00 km/h | 75.00% | 0.00 hPa
  • 23-04-2018 01:00:00 | 8.10°C | Sur |12.00 km/h | 86.00% | 0.00 hPa
  • 23-04-2018 00:00:00 | 7.70°C | Sudeste |2.00 km/h | 92.00% | 0.00 hPa
  • 22-04-2018 23:00:00 | 7.50°C | Calma |0.00 km/h | 91.00% | 0.00 hPa
  • 22-04-2018 22:00:00 | 7.80°C | Sudoeste |6.00 km/h | 89.00% | 0.00 hPa
  • 22-04-2018 21:00:00 | 8.20°C | Sur |6.00 km/h | 89.00% | 0.00 hPa
  • 22-04-2018 20:00:00 | 10.30°C | Noroeste |4.00 km/h | 88.00% | 0.00 hPa
  • 22-04-2018 19:00:00 | 11.90°C | Norte |3.00 km/h | 80.00% | 0.00 hPa
  • 22-04-2018 18:00:00 | 13.70°C | Sudoeste |9.00 km/h | 52.00% | 0.00 hPa
  • 22-04-2018 17:00:00 | 14.50°C | Sur |8.00 km/h | 50.00% | 0.00 hPa
  • 22-04-2018 16:00:00 | 14.70°C | Sur |9.00 km/h | 51.00% | 0.00 hPa
  • 22-04-2018 15:00:00 | 12.50°C | Sur |10.00 km/h | 59.00% | 0.00 hPa
  • 22-04-2018 14:00:00 | 12.60°C | Sur |12.00 km/h | 62.00% | 0.00 hPa
  • 22-04-2018 13:00:00 | 10.80°C | Sudeste |8.00 km/h | 65.00% | 0.00 hPa
  • 22-04-2018 12:00:00 | 10.30°C | Sur |12.00 km/h | 66.00% | 0.00 hPa
  • 22-04-2018 11:00:00 | 9.70°C | Sur |9.00 km/h | 69.00% | 0.00 hPa